Station: Gunnedah Resource Centre  

  Atmospheric Gas Attenuation - ITU Rec 676-11   ----------------- dB/100km -----------------
Date Time Temp RH % AH g/m3 Dew Point Wind Direction Speed kph Gust kph Barometer mB Rainfall Since 9am 24GHz 47GHz 76GHz 122GHz 134GHz 241GHz
08/05 12:30 17.2 40 5.86 3.5 1021.5 0 13.6 21.2 28.5 74.1 61.8 210.6
08/05 12:20 16.6 41 5.79 3.3 1021.5 0 13.5 21.2 28.4 74.0 61.5 209.3
08/05 12:10 16.1 41 5.62 2.9 1021.9 0 13.2 21.1 28.0 72.9 59.9 203.8
08/05 12:00 15.3 42 5.48 2.5 1022.1 0 12.9 21.1 27.8 72.3 58.9 200.1
08/05 11:50 15.1 43 5.55 2.6 1022.2 0 13.1 21.2 28.1 73.2 59.9 203.5
08/05 11:40 15.5 43 5.68 3 1022.5 0 13.3 21.3 28.5 74.1 61.1 207.8
08/05 11:30 15.2 44 5.71 3 1022.7 0 13.4 21.5 28.7 74.7 61.7 209.8
08/05 11:20 15.3 44 5.75 3.1 1022.6 0 13.5 21.5 28.8 74.9 62.1 211.2
08/05 11:10 14.9 44 5.61 2.8 1022.8 0 13.2 21.4 28.4 74.0 60.8 206.5
08/05 11:00 13.9 45 5.39 2.2 1023 0 12.8 21.3 28.0 72.8 58.9 200.0
08/05 10:50 14.4 45 5.56 2.6 1023.1 0 13.1 21.4 28.5 74.0 60.6 205.8
08/05 10:40 13.6 46 5.41 2.2 1023.3 0 12.8 21.4 28.2 73.3 59.4 201.6
08/05 10:30 13.3 47 5.43 2.2 1023.6 0 12.9 21.5 28.4 73.8 59.9 203.3
08/05 10:20 13.1 47 5.36 2.1 1023.6 0 12.7 21.5 28.2 73.3 59.2 200.8
08/05 10:10 13.2 46 5.28 1.8 1023.5 0 12.6 21.3 27.9 72.4 58.2 197.3
08/05 10:00 12.8 49 5.49 2.4 1023.7 0 13.0 21.7 28.8 74.8 61.0 207.1
08/05 09:50 12.8 50 5.6 2.6 1023.7 0 13.2 21.9 29.2 75.9 62.3 211.7
08/05 09:40 12 51 5.44 2.2 1023.7 0 12.9 21.9 28.9 75.1 61.0 207.0
08/05 09:30 12.3 51 5.54 2.5 1023.9 0 13.1 21.9 29.1 75.8 62.0 210.5
08/05 09:20 12.1 52 5.58 2.6 1023.7 0 13.2 22.0 29.4 76.4 62.6 212.7
08/05 09:10 11.3 53 5.41 2.1 1023.7 0 12.9 22.0 29.0 75.5 61.2 207.5
08/05 09:00 11.2 54 5.47 2.2 1023.7 0 13.0 22.1 29.3 76.1 62.0 210.3
08/05 08:50 11 55 5.51 2.3 1023.7 0 13.1 22.2 29.5 76.7 62.6 212.6
08/05 08:40 10.7 55 5.4 2 1023.8 0 12.9 22.1 29.2 75.9 61.5 208.6
08/05 08:30 10.5 57 5.53 2.4 1024 0 13.2 22.4 29.8 77.4 63.3 214.8
08/05 08:20 9.9 57 5.32 1.8 1023.8 0 12.8 22.2 29.2 75.9 61.2 207.3
08/05 08:10 9.3 59 5.3 1.7 1023.8 0 12.7 22.3 29.3 76.3 61.4 207.9
08/05 08:00 9 60 5.29 1.7 1023.8 0 12.7 22.4 29.4 76.5 61.5 208.3
08/05 07:50 8.8 60 5.22 1.5 1023.6 0 12.6 22.3 29.2 75.9 60.8 205.7
08/05 07:40 8.3 61 5.14 1.2 1023.5 0 12.4 22.3 29.1 75.6 60.1 203.4
08/05 07:30 8 63 5.21 1.4 1023.5 0 12.6 22.5 29.5 76.6 61.2 207.3
08/05 07:20 7.4 62 4.93 0.6 1023.4 0 12.0 22.2 28.6 74.3 58.2 196.4
08/05 07:10 7.2 64 5.03 0.9 1023.2 0 12.2 22.4 29.0 75.5 59.6 201.3
08/05 07:00 6.8 65 4.97 0.7 1023.4 0 12.1 22.4 29.0 75.3 59.1 199.7
08/05 06:50 6.3 68 5.04 0.8 1023.2 0 12.3 22.6 29.4 76.4 60.4 204.1
08/05 06:40 5.4 70 4.89 0.4 1023.1 0 12.0 22.6 29.1 75.7 59.1 199.6
08/05 06:30 5 69 4.69 -0.2 1023.2 0 11.6 22.4 28.5 74.1 56.9 191.6
08/05 06:20 5 70 4.76 0 1023 0 11.7 22.5 28.8 74.8 57.8 194.7
08/05 06:10 5.4 69 4.82 0.2 1022.9 0 11.8 22.5 28.9 75.0 58.2 196.4
08/05 06:00 4.8 71 4.76 0 1022.9 0 11.7 22.5 28.8 74.9 57.9 195.1
08/05 05:50 4.8 71 4.76 0 1022.9 0 11.7 22.5 28.8 74.9 57.9 195.1
08/05 05:40 4.5 73 4.8 0.1 1022.8 0 11.8 22.7 29.1 75.6 58.6 197.7
08/05 05:30 4.6 71 4.7 -0.2 1022.8 0 11.6 22.5 28.7 74.5 57.3 192.9
08/05 05:20 4.4 71 4.64 -0.4 1022.7 0 11.5 22.4 28.5 74.1 56.6 190.7
08/05 05:10 5.3 66 4.58 -0.5 1022.8 0 11.3 22.1 28.0 72.6 55.2 185.9
08/05 05:00 5.6 65 4.6 -0.4 1022.9 0 11.4 22.1 28.0 72.6 55.3 186.1
08/05 04:50 6.4 63 4.7 -0.1 1022.6 0 11.5 22.0 28.0 72.8 56.0 188.6
08/05 04:40 6 67 4.87 0.3 1022.7 0 11.9 22.4 28.8 74.9 58.4 197.1
08/05 04:30 4.6 72 4.77 0 1022.8 0 11.8 22.6 29.0 75.2 58.2 196.1
08/05 04:20 4.7 70 4.67 -0.3 1022.7 0 11.5 22.4 28.5 74.1 56.8 191.3
08/05 04:10 4.9 68 4.59 -0.5 1022.5 0 11.4 22.2 28.1 73.1 55.6 187.2
08/05 04:00 5.3 66 4.58 -0.5 1022.4 0 11.3 22.1 28.0 72.6 55.2 185.8
08/05 03:50 5.2 66 4.55 -0.6 1022.5 0 11.3 22.1 27.9 72.4 54.9 184.7
08/05 03:40 5.9 63 4.55 -0.6 1022.5 0 11.2 21.9 27.6 71.7 54.4 183.1
08/05 03:30 6.4 60 4.47 -0.8 1022.7 0 11.1 21.7 27.2 70.5 53.1 178.5
08/05 03:20 6.6 59 4.46 -0.8 1022.5 0 11.0 21.6 27.1 70.2 52.8 177.6
08/05 03:10 6.9 58 4.47 -0.8 1022.4 0 11.0 21.6 27.0 70.0 52.8 177.3
08/05 03:00 7.2 57 4.48 -0.7 1022.5 0 11.1 21.5 26.9 69.9 52.7 177.1
08/05 02:50 7.3 57 4.51 -0.6 1022.5 0 11.1 21.5 27.0 70.1 53.0 178.2
08/05 02:40 6.9 58 4.47 -0.8 1022.7 0 11.0 21.6 27.0 70.1 52.8 177.4
08/05 02:30 7 58 4.5 -0.7 1022.9 0 11.1 21.6 27.1 70.3 53.1 178.5
08/05 02:20 7.1 58 4.53 -0.6 1022.7 0 11.2 21.6 27.2 70.5 53.4 179.5
08/05 02:10 7 58 4.5 -0.7 1022.8 0 11.1 21.6 27.1 70.3 53.1 178.5
08/05 02:00 6.7 59 4.49 -0.7 1022.9 0 11.1 21.7 27.2 70.5 53.2 178.7
08/05 01:50 6.1 59 4.31 -1.3 1022.8 0 10.7 21.5 26.7 69.2 51.3 172.2
08/05 01:40 6.4 58 4.32 -1.2 1022.8 0 10.7 21.5 26.6 69.0 51.2 172.0
08/05 01:30 6.9 56 4.31 -1.3 1022.7 0 10.7 21.3 26.4 68.5 50.8 170.5
08/05 01:20 7.4 54 4.3 -1.3 1022.4 0 10.7 21.2 26.2 67.9 50.3 168.9
08/05 01:10 7.4 54 4.3 -1.3 1022.3 0 10.7 21.2 26.2 67.9 50.3 168.9
08/05 01:00 7.5 53 4.24 -1.4 1022.5 0 10.5 21.1 26.0 67.3 49.6 166.2
08/05 00:50 7.7 52 4.22 -1.5 1022.4 0 10.5 21.0 25.8 66.9 49.2 164.9
08/05 00:40 7.7 52 4.22 -1.5 1022.2 0 10.5 21.0 25.8 66.9 49.2 164.9
08/05 00:20 7.9 52 4.27 -1.3 1022.5 0 10.6 21.0 25.9 67.2 49.7 166.6
08/05 00:10 7.9 51 4.19 -1.6 1022.4 0 10.4 20.9 25.6 66.4 48.7 163.2
08/05 00:00 7.8 52 4.25 -1.4 1022.4 0 10.5 21.0 25.9 67.1 49.5 166.0
07/05 23:50 7.8 51 4.16 -1.7 1022.4 0 10.4 20.9 25.6 66.2 48.4 162.1
07/05 23:40 7.9 51 4.19 -1.6 1022.3 0 10.4 20.9 25.6 66.4 48.7 163.2
07/05 23:30 8.1 50 4.16 -1.7 1022.4 0 10.3 20.8 25.5 66.0 48.2 161.5
07/05 23:20 8.2 49 4.11 -1.9 1022.4 0 10.2 20.7 25.3 65.4 47.6 159.2
07/05 23:10 8.3 48 4.05 -2 1022.5 0 10.1 20.6 25.0 64.7 46.8 156.5
07/05 23:00 8.4 48 4.07 -2 1022.8 0 10.1 20.6 25.1 64.9 47.0 157.2
07/05 22:50 8.5 47 4.01 -2.1 1022.7 0 10.0 20.5 24.8 64.2 46.2 154.5
07/05 22:40 8.5 47 4.01 -2.1 1022.5 0 10.0 20.5 24.8 64.2 46.2 154.5
07/05 22:30 8.4 47 3.99 -2.2 1022.5 0 10.0 20.5 24.8 64.1 46.0 153.8
07/05 22:20 8.6 46 3.95 -2.3 1022.6 0 9.9 20.4 24.6 63.6 45.4 151.8
07/05 22:10 8.7 46 3.98 -2.3 1022.6 0 9.9 20.4 24.7 63.8 45.7 152.9
07/05 22:00 8.7 45 3.89 -2.6 1023.1 0 9.8 20.3 24.4 62.9 44.7 149.2
07/05 21:50 8.7 45 3.89 -2.6 1022.9 0 9.8 20.3 24.3 62.9 44.7 149.2
07/05 21:40 8.9 44 3.86 -2.7 1022.7 0 9.7 20.2 24.2 62.5 44.2 147.6
07/05 21:30 8.9 44 3.86 -2.7 1022.9 0 9.7 20.2 24.2 62.5 44.2 147.6
07/05 21:20 9 43 3.79 -2.9 1023 0 9.5 20.1 23.9 61.8 43.4 144.5
07/05 21:10 8.8 44 3.83 -2.8 1022.8 0 9.6 20.2 24.1 62.3 43.9 146.5
07/05 21:00 9.2 42 3.75 -3 1022.8 0 9.4 20.0 23.7 61.2 42.8 142.5
07/05 20:50 9.4 41 3.71 -3.2 1022.7 0 9.4 19.9 23.5 60.7 42.2 140.5
07/05 20:40 9.6 41 3.76 -3 1022.6 0 9.5 19.9 23.6 61.0 42.7 142.2
07/05 20:30 9.5 41 3.73 -3.1 1022.3 0 9.4 19.9 23.5 60.8 42.4 141.1
07/05 20:20 9.6 40 3.67 -3.3 1022.5 0 9.3 19.8 23.3 60.2 41.6 138.5
07/05 20:10 8.9 42 3.68 -3.3 1022.5 0 9.3 20.0 23.5 60.8 42.1 140.1
07/05 20:00 8.6 43 3.7 -3.3 1022.4 0 9.4 20.1 23.7 61.2 42.5 141.5
07/05 19:50 9.1 41 3.64 -3.4 1022.6 0 9.2 19.9 23.3 60.3 41.5 138.2

Last Refresh: 08-May-2026 12:08:49

Bureau of Meteorology